Time;durP1;ratioP1;P1;durP2;ratioP2;P2;SDS_P1;SDS_P2;PMS_P1;PMS_P2;Temp;Humidity;BMP_temperature;BMP_pressure;BME280_temperature;BME280_humidity;BME280_pressure;Samples;Min_cycle;Max_cycle;Signal;HPM_P1;HPM_P2
2022/06/13 00:00:19;;;;;;;4.78;4.15;;;;;;;20.71;100.00;99905.97;5031097;28;20204;-68
2022/06/13 00:02:46;;;;;;;5.20;4.80;;;;;;;20.62;100.00;99903.59;5032442;28;20275;-68
2022/06/13 00:05:15;;;;;;;6.28;4.88;;;;;;;20.56;100.00;99901.13;5032040;28;21030;-67
2022/06/13 00:07:41;;;;;;;6.40;4.75;;;;;;;20.48;100.00;99892.56;5032175;28;20603;-67
2022/06/13 00:10:11;;;;;;;7.13;4.93;;;;;;;20.51;100.00;99889.88;5032516;28;20220;-67
2022/06/13 00:12:39;;;;;;;6.22;4.75;;;;;;;20.39;100.00;99874.41;5032628;28;20208;-67
2022/06/13 00:15:07;;;;;;;6.25;5.63;;;;;;;20.45;100.00;99877.72;5032613;28;20240;-67
2022/06/13 00:17:36;;;;;;;8.25;4.90;;;;;;;20.46;100.00;99886.50;5013875;28;20222;-67
2022/06/13 00:20:03;;;;;;;5.05;4.55;;;;;;;20.35;100.00;99872.78;5032148;28;20223;-67
2022/06/13 00:22:30;;;;;;;4.57;4.18;;;;;;;20.43;100.00;99891.88;5032335;28;20715;-67
2022/06/13 00:24:57;;;;;;;6.30;4.60;;;;;;;20.44;100.00;99888.34;5032065;28;20211;-67
2022/06/13 00:27:24;;;;;;;5.20;4.70;;;;;;;20.51;100.00;99885.44;5031679;28;20200;-67
2022/06/13 00:29:51;;;;;;;6.10;4.60;;;;;;;20.52;100.00;99886.31;5031846;28;20200;-67
2022/06/13 00:32:18;;;;;;;5.50;5.00;;;;;;;20.54;100.00;99880.13;5032218;28;20207;-67
2022/06/13 00:34:47;;;;;;;5.13;4.25;;;;;;;20.55;100.00;99886.22;5031859;28;20200;-68
2022/06/13 00:37:14;;;;;;;5.07;4.68;;;;;;;20.53;100.00;99886.28;4997175;28;20936;-67
2022/06/13 00:39:41;;;;;;;3.55;3.13;;;;;;;20.52;100.00;99883.69;5031644;28;20223;-68
2022/06/13 00:42:08;;;;;;;5.72;3.63;;;;;;;20.64;100.00;99885.97;5031934;28;20204;-67
2022/06/13 00:44:37;;;;;;;6.00;4.82;;;;;;;20.85;100.00;99895.03;5031843;28;20207;-67
2022/06/13 00:47:05;;;;;;;4.25;3.85;;;;;;;20.68;100.00;99893.75;5030985;28;20199;-67
2022/06/13 00:49:38;;;;;;;6.32;4.90;;;;;;;20.86;100.00;99892.34;5031937;28;20204;-67
2022/06/13 00:52:13;;;;;;;5.53;4.30;;;;;;;20.81;100.00;99888.97;5031439;28;20207;-67
2022/06/13 00:54:42;;;;;;;4.95;3.78;;;;;;;20.51;100.00;99876.72;5030965;28;20295;-67
2022/06/13 00:57:14;;;;;;;8.48;4.07;;;;;;;20.60;100.00;99879.06;5031141;28;20226;-67
2022/06/13 00:59:41;;;;;;;5.45;4.03;;;;;;;20.46;100.00;99881.22;5031139;28;20799;-67
2022/06/13 01:02:09;;;;;;;6.78;3.83;;;;;;;20.55;100.00;99889.72;5031112;28;20197;-67
2022/06/13 01:04:36;;;;;;;5.78;3.88;;;;;;;20.47;100.00;99885.59;5031282;28;20573;-68
2022/06/13 01:07:04;;;;;;;7.55;4.50;;;;;;;20.46;100.00;99882.09;5031058;28;20590;-67
2022/06/13 01:12:19;;;;;;;5.00;3.83;;;;;;;20.47;100.00;99889.09;5031271;28;20258;-67
2022/06/13 01:15:02;;;;;;;6.90;4.43;;;;;;;20.52;100.00;99878.41;5031279;28;20254;-67
2022/06/13 01:17:42;;;;;;;3.90;3.60;;;;;;;20.57;100.00;99876.53;5031163;28;20274;-67
2022/06/13 01:20:24;;;;;;;6.85;4.00;;;;;;;20.67;100.00;99894.66;5031035;28;20192;-67
2022/06/13 01:23:26;;;;;;;4.10;3.45;;;;;;;20.53;100.00;99893.31;5031142;28;20208;-66
2022/06/13 01:26:22;;;;;;;12.23;4.68;;;;;;;20.49;100.00;99886.41;5002461;28;20207;-67
2022/06/13 01:29:26;;;;;;;4.63;3.95;;;;;;;20.35;100.00;99878.91;4985218;28;20686;-67
2022/06/13 01:32:02;;;;;;;4.40;3.95;;;;;;;20.43;100.00;99883.97;4989007;28;20205;-67
2022/06/13 01:34:39;;;;;;;4.85;4.45;;;;;;;20.49;100.00;99892.53;4989439;28;20712;-67
2022/06/13 01:37:20;;;;;;;5.80;4.45;;;;;;;20.32;100.00;99886.03;4989107;28;20631;-67
2022/06/13 01:40:00;;;;;;;6.32;4.80;;;;;;;20.30;100.00;99869.41;4989271;28;20212;-68
2022/06/13 01:42:39;;;;;;;4.40;4.10;;;;;;;20.41;100.00;99885.75;4989053;28;20204;-67
2022/06/13 01:45:14;;;;;;;7.03;4.00;;;;;;;20.41;100.00;99886.63;4989373;28;20209;-67
2022/06/13 01:47:52;;;;;;;6.43;4.47;;;;;;;20.41;100.00;99888.38;4940304;28;20196;-67
2022/06/13 01:50:25;;;;;;;6.78;4.60;;;;;;;20.24;100.00;99889.69;4950769;28;20205;-66
2022/06/13 01:53:01;;;;;;;4.40;4.00;;;;;;;20.40;100.00;99890.19;4969959;28;20377;-67
2022/06/13 01:55:40;;;;;;;5.10;4.70;;;;;;;20.33;100.00;99886.00;4969965;28;20198;-67
2022/06/13 01:58:13;;;;;;;5.43;4.78;;;;;;;20.15;100.00;99855.75;4982651;28;20228;-67
2022/06/13 02:00:46;;;;;;;5.70;4.38;;;;;;;20.22;100.00;99877.50;4988979;28;20225;-67
2022/06/13 02:03:19;;;;;;;6.28;4.38;;;;;;;20.35;100.00;99888.56;4988566;28;20201;-67
2022/06/13 02:05:52;;;;;;;4.80;4.32;;;;;;;20.32;100.00;99883.41;5006561;28;20204;-67
2022/06/13 02:08:24;;;;;;;5.78;4.70;;;;;;;20.60;100.00;99886.97;4996173;28;20200;-67
2022/06/13 02:10:55;;;;;;;4.07;3.78;;;;;;;20.32;100.00;99867.59;5030714;28;20219;-67
2022/06/13 02:13:29;;;;;;;7.00;4.45;;;;;;;20.44;100.00;99883.91;5030389;28;20232;-67
2022/06/13 02:16:00;;;;;;;5.10;4.68;;;;;;;20.34;100.00;99892.97;5030986;28;20887;-67
2022/06/13 02:18:32;;;;;;;4.72;4.32;;;;;;;20.53;100.00;99894.19;5029971;28;20224;-67
2022/06/13 02:21:05;;;;;;;5.93;4.72;;;;;;;20.64;100.00;99902.66;5030569;28;20608;-67
2022/06/13 02:23:36;;;;;;;5.07;4.15;;;;;;;20.52;100.00;99891.59;5031588;28;20200;-67
2022/06/13 02:26:06;;;;;;;4.38;4.07;;;;;;;20.54;100.00;99906.47;5034830;28;20211;-67
2022/06/13 02:28:38;;;;;;;6.70;4.78;;;;;;;20.76;100.00;99927.78;5033912;28;20208;-68
2022/06/13 02:31:10;;;;;;;4.90;4.10;;;;;;;20.85;100.00;99927.50;5034554;28;20222;-67
2022/06/13 02:33:44;;;;;;;5.90;4.55;;;;;;;20.81;100.00;99910.06;5034422;28;20207;-67
2022/06/13 02:36:15;;;;;;;4.68;4.28;;;;;;;20.78;100.00;99921.56;5034143;28;20203;-67
2022/06/13 02:38:48;;;;;;;5.35;4.85;;;;;;;20.72;100.00;99927.03;5033533;28;20700;-67
2022/06/13 02:41:24;;;;;;;4.05;3.83;;;;;;;20.73;100.00;99920.81;5034381;28;20323;-67
2022/06/13 02:43:57;;;;;;;8.27;5.00;;;;;;;20.77;100.00;99918.97;5034211;28;20196;-67
2022/06/13 02:46:31;;;;;;;6.90;5.07;;;;;;;20.64;100.00;99922.88;5033845;28;20226;-67
2022/06/13 02:49:04;;;;;;;6.63;5.50;;;;;;;20.58;100.00;99920.41;5034431;28;20215;-66
2022/06/13 02:51:39;;;;;;;6.28;5.13;;;;;;;20.68;100.00;99920.09;5034279;28;20192;-67
2022/06/13 02:54:11;;;;;;;6.43;4.85;;;;;;;20.53;100.00;99917.03;5033828;28;20209;-67
2022/06/13 02:59:46;;;;;;;6.10;5.47;;;;;;;20.43;100.00;99913.81;5033351;28;20257;-67
2022/06/13 03:02:16;;;;;;;6.05;5.50;;;;;;;20.27;100.00;99902.81;5033520;28;20200;-66
2022/06/13 03:04:55;;;;;;;6.65;6.00;;;;;;;20.38;100.00;99920.94;5033823;28;20208;-67
2022/06/13 03:07:33;;;;;;;6.30;5.68;;;;;;;20.37;100.00;99908.69;5032846;28;20193;-67
2022/06/13 03:10:06;;;;;;;9.48;6.13;;;;;;;20.31;100.00;99898.31;5032443;28;20204;-67
2022/06/13 03:12:37;;;;;;;10.10;5.75;;;;;;;20.09;100.00;99876.06;5033318;28;20695;-67
2022/06/13 03:15:13;;;;;;;11.55;6.57;;;;;;;20.10;100.00;99880.44;5033590;28;20231;-68
2022/06/13 03:17:45;;;;;;;7.65;6.10;;;;;;;20.26;100.00;99887.88;5033230;28;20223;-67
2022/06/13 03:20:18;;;;;;;7.30;6.05;;;;;;;20.19;100.00;99888.94;5033416;28;20212;-67
2022/06/13 03:22:49;;;;;;;11.82;6.68;;;;;;;20.36;100.00;99901.72;5033457;28;20234;-67
2022/06/13 03:25:23;;;;;;;15.27;7.43;;;;;;;20.31;100.00;99905.34;5014703;28;20196;-67
2022/06/13 03:27:55;;;;;;;8.68;6.75;;;;;;;20.49;100.00;99903.09;4997354;28;20203;-67
2022/06/13 03:30:26;;;;;;;8.68;6.32;;;;;;;20.40;100.00;99907.75;5032629;28;20257;-67
2022/06/13 03:35:44;;;;;;;7.40;6.63;;;;;;;20.61;100.00;99907.16;4971881;28;20278;-67
2022/06/13 03:38:16;;;;;;;6.68;5.97;;;;;;;20.67;100.00;99909.59;4960282;28;20236;-67
2022/06/13 03:40:49;;;;;;;12.18;7.30;;;;;;;20.69;100.00;99920.97;4958133;28;20206;-67
2022/06/13 03:43:21;;;;;;;9.00;6.72;;;;;;;20.75;100.00;99921.66;4971149;28;20206;-67
2022/06/13 03:45:52;;;;;;;7.35;6.55;;;;;;;20.73;100.00;99912.03;4957124;28;20202;-67
2022/06/13 03:48:24;;;;;;;6.60;6.00;;;;;;;20.66;100.00;99915.78;4960670;28;20206;-70
2022/06/13 03:50:56;;;;;;;7.75;6.40;;;;;;;20.62;100.00;99908.84;4972169;28;20202;-70
2022/06/13 03:53:28;;;;;;;7.60;6.78;;;;;;;20.42;100.00;99893.63;4963782;28;20217;-71
2022/06/13 03:56:09;;;;;;;16.77;8.05;;;;;;;20.66;100.00;99913.13;4954499;28;20213;-67
2022/06/13 03:58:41;;;;;;;9.07;7.57;;;;;;;20.64;100.00;99925.50;4957582;28;20237;-67
2022/06/13 04:01:13;;;;;;;9.00;7.63;;;;;;;20.71;100.00;99924.41;4967995;28;20195;-67
2022/06/13 04:03:41;;;;;;;8.10;6.63;;;;;;;20.57;100.00;99921.31;4971513;28;20198;-67
2022/06/13 04:06:33;;;;;;;10.43;7.38;;;;;;;20.62;100.00;99929.94;4962412;28;20205;-67
2022/06/13 04:09:01;;;;;;;9.38;7.35;;;;;;;20.49;100.00;99928.56;4963824;28;20686;-67
2022/06/13 04:11:41;;;;;;;13.05;7.82;;;;;;;20.59;100.00;99920.34;4952374;28;20203;-67
2022/06/13 04:14:17;;;;;;;10.98;7.90;;;;;;;20.65;100.00;99924.59;5026157;28;20235;-68
2022/06/13 04:16:53;;;;;;;9.07;6.90;;;;;;;20.63;100.00;99929.91;5029280;28;20207;-68
2022/06/13 04:19:42;;;;;;;10.25;7.93;;;;;;;20.77;100.00;99940.91;5032702;28;20222;-68
2022/06/13 04:22:20;;;;;;;12.38;7.90;;;;;;;20.60;100.00;99931.75;5044026;28;20200;-68
2022/06/13 04:24:58;;;;;;;8.95;7.43;;;;;;;20.69;100.00;99942.88;5046482;28;20200;-68
2022/06/13 04:27:29;;;;;;;8.50;7.18;;;;;;;20.79;100.00;99977.78;5039366;28;20222;-68
2022/06/13 04:30:01;;;;;;;8.35;7.47;;;;;;;20.99;100.00;99990.38;5048645;28;20206;-66
2022/06/13 04:32:32;;;;;;;14.73;10.32;;;;;;;20.99;100.00;99982.47;5036174;28;20219;-70
2022/06/13 04:35:00;;;;;;;25.38;14.68;;;;;;;21.16;100.00;99985.50;5031688;28;20208;-68
2022/06/13 04:37:29;;;;;;;12.70;8.93;;;;;;;20.97;100.00;99958.81;5032585;28;20216;-67
2022/06/13 04:40:05;;;;;;;11.02;9.25;;;;;;;21.31;100.00;99995.59;5042339;28;21011;-68
2022/06/13 04:42:35;;;;;;;10.20;8.82;;;;;;;21.32;100.00;100013.16;5045867;28;20204;-68
2022/06/13 04:45:07;;;;;;;12.80;9.15;;;;;;;21.37;100.00;100005.13;5038493;28;20203;-68
2022/06/13 04:47:34;;;;;;;14.25;8.88;;;;;;;21.00;100.00;99992.97;5046634;28;20211;-68
2022/06/13 04:50:04;;;;;;;17.38;9.57;;;;;;;20.86;100.00;99986.38;5050594;28;20199;-68
2022/06/13 04:52:36;;;;;;;15.50;9.38;;;;;;;20.97;100.00;99984.28;5013222;28;20204;-67
2022/06/13 04:55:08;;;;;;;14.75;9.80;;;;;;;21.19;100.00;99991.53;5045631;28;20569;-67
2022/06/13 04:57:35;;;;;;;13.63;10.60;;;;;;;21.06;100.00;99990.16;5041992;28;20219;-68
2022/06/13 05:00:05;;;;;;;13.45;10.27;;;;;;;21.43;100.00;99989.09;5046008;28;20706;-68
2022/06/13 05:02:39;;;;;;;15.10;10.45;;;;;;;21.47;100.00;99993.38;5031642;28;20287;-68
2022/06/13 05:05:18;;;;;;;13.27;10.23;;;;;;;21.57;100.00;99993.03;5031039;28;20200;-68
2022/06/13 05:07:47;;;;;;;11.13;10.02;;;;;;;21.70;100.00;99988.22;5031274;28;20209;-69
2022/06/13 05:10:18;;;;;;;11.35;10.10;;;;;;;21.89;100.00;99986.72;5031815;28;20208;-68
2022/06/13 05:12:46;;;;;;;14.38;10.55;;;;;;;21.63;100.00;99994.59;5030526;28;20676;-68
2022/06/13 05:15:14;;;;;;;12.88;10.73;;;;;;;;;;5031341;28;20204;-68
2022/06/13 05:18:22;;;;;;;25.92;16.15;;;;;;;21.39;100.00;99982.19;5036538;28;20696;-68
2022/06/13 05:20:59;;;;;;;19.67;12.07;;;;;;;21.60;100.00;99994.72;5021910;28;20208;-68
2022/06/13 05:23:43;;;;;;;16.77;10.90;;;;;;;21.51;100.00;99997.66;5031025;28;20203;-68
2022/06/13 05:26:10;;;;;;;16.42;12.73;;;;;;;21.53;100.00;99979.97;5030598;28;20204;-68
2022/06/13 05:28:37;;;;;;;12.90;9.73;;;;;;;21.55;100.00;99994.84;5034414;28;20556;-67
2022/06/13 05:31:08;;;;;;;14.85;11.23;;;;;;;21.88;100.00;100002.59;5045399;28;20203;-66
2022/06/13 05:33:38;;;;;;;15.02;11.60;;;;;;;21.93;100.00;100012.16;5047601;28;20195;-68
2022/06/13 05:36:09;;;;;;;13.00;11.23;;;;;;;22.37;100.00;99991.28;5049966;28;20218;-67
2022/06/13 05:38:41;;;;;;;12.73;10.77;;;;;;;22.25;100.00;100011.09;5035899;28;20232;-67
2022/06/13 05:41:08;;;;;;;14.52;11.35;;;;;;;22.30;100.00;100013.56;5040073;28;20274;-67
2022/06/13 05:43:35;;;;;;;17.48;12.93;;;;;;;22.14;100.00;99992.97;5035093;28;20200;-67
2022/06/13 05:46:03;;;;;;;20.52;13.27;;;;;;;22.36;100.00;99993.09;5050702;28;20202;-67
2022/06/13 05:48:30;;;;;;;21.65;12.80;;;;;;;22.59;100.00;100009.00;5024077;28;20235;-67
2022/06/13 05:50:57;;;;;;;29.05;18.65;;;;;;;22.10;100.00;99993.09;5042850;28;20196;-68
2022/06/13 05:53:25;;;;;;;14.13;12.45;;;;;;;22.40;100.00;100017.63;5030969;28;20226;-67
2022/06/13 05:55:57;;;;;;;14.52;10.75;;;;;;;22.23;100.00;100021.69;5030905;28;20707;-67
2022/06/13 05:58:25;;;;;;;17.95;13.05;;;;;;;22.53;100.00;100013.66;5013066;28;20239;-68
2022/06/13 06:00:54;;;;;;;15.82;12.88;;;;;;;23.38;100.00;100037.00;5035045;28;20203;-67
2022/06/13 06:03:21;;;;;;;14.80;11.55;;;;;;;24.30;100.00;100048.38;5038961;28;20199;-68
2022/06/13 06:05:49;;;;;;;16.42;11.75;;;;;;;24.69;100.00;100078.50;5038723;28;20291;-68
2022/06/13 06:08:19;;;;;;;12.07;10.32;;;;;;;24.31;100.00;100055.41;5046558;28;20210;-68
2022/06/13 06:10:48;;;;;;;15.35;11.95;;;;;;;24.58;100.00;100023.28;5034469;28;20594;-68
2022/06/13 06:13:16;;;;;;;16.13;8.48;;;;;;;24.87;100.00;100072.44;5034978;28;20251;-67
2022/06/13 06:15:46;;;;;;;15.98;9.93;;;;;;;24.89;100.00;100078.56;5034635;28;20203;-68
2022/06/13 06:18:14;;;;;;;16.65;9.85;;;;;;;23.81;100.00;100060.94;5034891;28;20198;-69
2022/06/13 06:20:41;;;;;;;11.43;9.63;;;;;;;24.02;100.00;100070.66;5016138;28;20211;-67
2022/06/13 06:23:09;;;;;;;10.10;8.68;;;;;;;23.70;100.00;100073.72;5033157;28;20271;-68
2022/06/13 06:25:36;;;;;;;12.70;8.20;;;;;;;23.85;100.00;100069.63;5040339;28;20227;-69
2022/06/13 06:28:04;;;;;;;11.07;8.63;;;;;;;23.97;100.00;100069.13;5043667;28;20200;-67
2022/06/13 06:30:33;;;;;;;10.07;8.05;;;;;;;23.61;100.00;100060.84;5034699;28;20554;-68
2022/06/13 06:33:00;;;;;;;12.32;8.13;;;;;;;23.16;100.00;100061.59;5034418;28;20656;-68
2022/06/13 06:35:30;;;;;;;14.35;9.60;;;;;;;23.47;100.00;100057.88;5034219;28;20200;-68
2022/06/13 06:37:59;;;;;;;11.95;10.02;;;;;;;23.56;100.00;100063.66;5015553;28;20211;-68
2022/06/13 06:40:27;;;;;;;10.82;9.52;;;;;;;23.63;100.00;100064.28;5034207;28;20568;-68
2022/06/13 06:42:54;;;;;;;10.93;9.35;;;;;;;23.56;100.00;100065.44;5034331;28;20265;-68
2022/06/13 06:45:21;;;;;;;10.85;9.70;;;;;;;23.70;100.00;100049.88;5034321;28;20215;-68
2022/06/13 06:47:49;;;;;;;10.38;9.30;;;;;;;23.85;100.00;100044.00;5034175;28;20204;-68
2022/06/13 06:50:20;;;;;;;9.50;8.48;;;;;;;23.94;100.00;100064.81;5034050;28;20212;-69
2022/06/13 06:52:46;;;;;;;9.95;8.70;;;;;;;24.13;100.00;100065.84;5046234;28;20651;-68
2022/06/13 07:00:46;;;;;;;14.77;8.65;;;;;;;24.94;100.00;100076.53;5048476;28;20211;-68
2022/06/13 07:03:15;;;;;;;14.18;8.05;;;;;;;25.29;100.00;100084.75;5043968;28;20251;-69
2022/06/13 07:05:42;;;;;;;9.23;7.53;;;;;;;25.30;100.00;100084.66;5052480;28;20203;-69
2022/06/13 07:08:08;;;;;;;10.38;8.63;;;;;;;25.33;100.00;100083.69;5033965;28;20201;-68
2022/06/13 07:10:35;;;;;;;9.18;8.27;;;;;;;24.90;100.00;100074.94;5033220;28;20221;-68
2022/06/13 07:13:02;;;;;;;13.95;9.38;;;;;;;25.18;100.00;100064.84;5014671;28;20212;-69
2022/06/13 07:15:29;;;;;;;9.55;8.63;;;;;;;25.67;100.00;100067.06;5042751;28;20204;-68
2022/06/13 07:17:56;;;;;;;8.35;7.53;;;;;;;25.83;100.00;100058.28;5035107;28;20196;-68
2022/06/13 07:20:24;;;;;;;9.27;8.30;;;;;;;25.97;100.00;100066.47;5033664;28;20223;-69
2022/06/13 07:22:53;;;;;;;12.20;7.50;;;;;;;25.59;100.00;100075.41;5032794;28;20204;-67
2022/06/13 07:25:24;;;;;;;8.25;7.43;;;;;;;25.90;100.00;100051.75;5033612;28;20200;-68
2022/06/13 07:27:51;;;;;;;8.18;7.00;;;;;;;26.32;100.00;100067.44;5033619;28;20192;-68
2022/06/13 07:30:20;;;;;;;8.40;7.13;;;;;;;26.60;100.00;100072.22;5014994;28;20192;-68
2022/06/13 07:32:48;;;;;;;8.55;7.40;;;;;;;26.49;100.00;100064.78;5033473;28;20196;-68
2022/06/13 07:35:17;;;;;;;7.30;6.60;;;;;;;25.87;100.00;100051.03;5032949;28;20196;-68
2022/06/13 07:40:31;;;;;;;6.50;5.90;;;;;;;26.10;100.00;100072.91;5032898;28;20230;-68
2022/06/13 07:43:02;;;;;;;6.57;6.03;;;;;;;26.15;100.00;100086.84;4997854;28;20254;-68
2022/06/13 07:45:34;;;;;;;6.68;5.97;;;;;;;26.24;100.00;100074.06;5014386;28;20200;-67
2022/06/13 07:48:01;;;;;;;7.78;6.75;;;;;;;26.70;100.00;100084.13;5032717;28;20589;-68
2022/06/13 07:50:30;;;;;;;6.93;6.15;;;;;;;27.17;100.00;100071.03;5032872;28;20676;-68
2022/06/13 07:52:58;;;;;;;8.88;5.78;;;;;;;27.05;100.00;100079.66;5032726;28;20601;-68
2022/06/13 07:55:27;;;;;;;6.95;6.07;;;;;;;26.91;100.00;100077.72;5032652;28;20751;-68
2022/06/13 07:57:54;;;;;;;8.88;7.25;;;;;;;26.54;100.00;100077.88;5032506;28;20204;-68
2022/06/13 08:00:25;;;;;;;7.90;7.10;;;;;;;26.69;100.00;100077.06;5032448;28;20234;-68
2022/06/13 08:02:53;;;;;;;8.02;7.22;;;;;;;27.06;100.00;100084.91;5032520;28;20665;-68
2022/06/13 08:05:20;;;;;;;8.23;7.38;;;;;;;25.69;100.00;100023.56;5032389;28;20673;-68
2022/06/13 08:07:47;;;;;;;8.45;7.65;;;;;;;26.28;100.00;100076.50;5032568;28;20211;-68
2022/06/13 08:10:15;;;;;;;9.88;8.82;;;;;;;26.40;100.00;100072.34;5032306;28;20212;-68
2022/06/13 08:12:44;;;;;;;9.13;7.93;;;;;;;26.07;100.00;100064.25;4997427;28;20200;-68
2022/06/13 08:15:13;;;;;;;7.97;7.25;;;;;;;26.13;100.00;100030.25;5032079;28;20200;-68
2022/06/13 08:17:41;;;;;;;8.48;7.68;;;;;;;26.42;100.00;100073.16;5032159;28;20322;-68
2022/06/13 08:20:09;;;;;;;9.40;7.82;;;;;;;26.73;100.00;100078.63;5032349;28;20234;-67
2022/06/13 08:22:42;;;;;;;10.52;8.30;;;;;;;26.15;100.00;100076.19;5031275;28;20199;-67
2022/06/13 08:25:10;;;;;;;9.63;8.60;;;;;;;25.72;100.00;100055.28;5031974;28;20196;-68
2022/06/13 08:27:38;;;;;;;12.60;8.98;;;;;;;25.94;100.00;100057.78;5032073;28;20601;-68
2022/06/13 08:30:06;;;;;;;12.38;8.15;;;;;;;26.31;100.00;100076.34;5031802;28;20715;-68
2022/06/13 08:32:33;;;;;;;9.38;8.40;;;;;;;25.94;100.00;100077.25;4997080;28;20200;-68
2022/06/13 08:35:00;;;;;;;9.88;8.90;;;;;;;26.00;100.00;100070.78;5031929;28;20650;-68
2022/06/13 08:37:27;;;;;;;8.65;7.82;;;;;;;25.76;100.00;100056.00;5031884;28;20200;-68
2022/06/13 08:39:54;;;;;;;9.00;8.18;;;;;;;25.87;100.00;100067.84;5031646;28;20421;-69
2022/06/13 08:42:28;;;;;;;17.35;8.90;;;;;;;26.14;100.00;100071.84;5030718;28;20652;-68
2022/06/13 08:45:02;;;;;;;9.75;8.75;;;;;;;25.91;100.00;100055.28;5031273;28;20196;-67
2022/06/13 08:47:43;;;;;;;10.77;9.63;;;;;;;25.72;100.00;100043.81;5031565;28;20208;-66
2022/06/13 08:50:19;;;;;;;9.95;8.82;;;;;;;25.64;100.00;100060.97;5031215;28;20672;-68
2022/06/13 08:52:53;;;;;;;14.75;10.90;;;;;;;25.71;100.00;100064.22;5031406;28;20261;-68
2022/06/13 08:55:29;;;;;;;13.48;11.30;;;;;;;25.23;100.00;100061.09;5013120;28;20195;-67
2022/06/13 08:58:04;;;;;;;15.82;11.45;;;;;;;25.29;100.00;100056.41;5031269;28;20204;-67
2022/06/13 09:00:35;;;;;;;13.10;11.02;;;;;;;25.45;100.00;100069.81;5031176;28;20223;-68
2022/06/13 09:03:09;;;;;;;11.27;9.75;;;;;;;25.25;100.00;100080.50;5012816;28;20207;-68
2022/06/13 09:05:42;;;;;;;13.52;11.15;;;;;;;25.07;100.00;100056.53;5031319;28;20197;-68
2022/06/13 09:08:17;;;;;;;11.27;10.00;;;;;;;25.18;100.00;100040.94;5031226;28;20207;-68
2022/06/13 09:10:52;;;;;;;12.75;11.55;;;;;;;25.77;100.00;100065.69;5031292;28;20790;-67
2022/06/13 09:13:26;;;;;;;14.27;11.20;;;;;;;25.81;100.00;100065.47;5031078;28;20239;-67
2022/06/13 09:16:05;;;;;;;12.68;10.55;;;;;;;26.17;100.00;100048.69;5012516;28;20207;-69
2022/06/13 09:18:39;;;;;;;14.90;9.52;;;;;;;26.07;100.00;100051.81;5013625;28;20595;-68
2022/06/13 09:21:16;;;;;;;11.07;9.93;;;;;;;25.92;100.00;100041.06;5031153;28;20227;-68
2022/06/13 09:23:51;;;;;;;9.75;8.15;;;;;;;26.03;100.00;100070.63;5030808;28;20199;-67
2022/06/13 09:26:23;;;;;;;14.73;9.27;;;;;;;26.40;100.00;100064.38;5030905;28;20684;-68
2022/06/13 09:28:56;;;;;;;10.27;9.27;;;;;;;26.69;100.00;100058.44;5030647;28;20205;-68
2022/06/13 09:31:31;;;;;;;7.45;6.45;;;;;;;26.32;100.00;100051.50;5030733;28;20204;-68
2022/06/13 09:34:04;;;;;;;13.23;8.30;;;;;;;26.52;100.00;100055.78;5030432;28;20693;-68
2022/06/13 09:36:34;;;;;;;9.18;8.07;;;;;;;26.40;100.00;100049.28;5029084;28;20208;-68
2022/06/13 09:39:05;;;;;;;9.13;8.25;;;;;;;26.96;100.00;100080.16;5030508;28;20197;-68
2022/06/13 09:41:53;;;;;;;8.38;7.57;;;;;;;27.24;100.00;100085.75;5030890;28;20224;-68
2022/06/13 09:44:33;;;;;;;7.45;6.72;;;;;;;26.98;100.00;100068.47;5030756;28;20200;-68
2022/06/13 09:47:11;;;;;;;9.25;6.75;;;;;;;26.86;100.00;100081.56;5030848;28;20196;-68
2022/06/13 09:49:48;;;;;;;6.88;5.72;;;;;;;26.80;100.00;100082.69;5030463;28;20590;-68
2022/06/13 09:52:22;;;;;;;7.30;6.30;;;;;;;26.57;100.00;100054.63;5042448;28;20207;-68
2022/06/13 09:54:59;;;;;;;6.45;5.95;;;;;;;27.03;100.00;100076.22;5030483;28;20290;-68
2022/06/13 09:57:35;;;;;;;6.95;5.68;;;;;;;27.36;100.00;100078.91;5030253;28;20204;-68
2022/06/13 10:00:11;;;;;;;8.55;5.43;;;;;;;27.14;98.35;100079.19;5030473;28;20231;-68
2022/06/13 10:02:47;;;;;;;6.07;5.43;;;;;;;27.16;98.50;100071.09;5030413;28;20680;-68
2022/06/13 10:05:31;;;;;;;6.18;5.50;;;;;;;27.22;99.66;100070.78;5030420;28;20672;-68
2022/06/13 10:08:07;;;;;;;5.70;5.20;;;;;;;27.10;100.00;100072.31;5030388;28;20222;-68
2022/06/13 10:10:43;;;;;;;6.82;5.00;;;;;;;27.14;100.00;100071.19;5030478;28;20676;-68
2022/06/13 10:13:20;;;;;;;8.30;4.63;;;;;;;27.11;99.70;100074.88;5029965;28;20654;-68
2022/06/13 10:15:55;;;;;;;4.95;4.55;;;;;;;27.30;100.00;100063.22;5030343;28;20199;-68
2022/06/13 10:18:45;;;;;;;5.40;4.13;;;;;;;27.41;93.32;100075.03;5030220;28;20200;-68
2022/06/13 10:21:19;;;;;;;5.70;4.75;;;;;;;27.61;90.78;100074.00;5030039;28;20227;-68
2022/06/13 10:23:52;;;;;;;4.50;4.18;;;;;;;27.57;87.20;100075.94;5030139;28;20196;-68
2022/06/13 10:26:30;;;;;;;8.88;4.40;;;;;;;27.54;92.00;100078.78;5030262;28;20206;-68
2022/06/13 10:29:47;;;;;;;4.30;4.00;;;;;;;27.76;89.46;100065.13;5030271;28;20207;-68
2022/06/13 10:32:43;;;;;;;6.55;4.57;;;;;;;27.95;91.79;100065.81;4968468;28;20222;-67
2022/06/13 10:35:24;;;;;;;5.00;4.60;;;;;;;27.64;94.59;100054.31;4930563;29;20204;-68
2022/06/13 10:38:03;;;;;;;5.82;5.10;;;;;;;27.65;94.23;100048.88;4930763;29;20214;-68
2022/06/13 10:40:30;;;;;;;5.20;4.70;;;;;;;27.59;97.56;100058.06;4930987;29;20309;-68
2022/06/13 10:42:58;;;;;;;4.85;4.45;;;;;;;27.81;97.22;100057.75;4930522;29;20199;-68
2022/06/13 10:45:25;;;;;;;9.68;4.72;;;;;;;27.76;93.40;100046.47;4932894;29;20213;-69
2022/06/13 10:47:58;;;;;;;4.70;4.32;;;;;;;28.03;92.29;100054.72;4934487;29;20226;-68
2022/06/13 10:50:32;;;;;;;9.88;4.53;;;;;;;28.14;90.63;100040.81;4934230;29;20340;-69
2022/06/13 10:53:01;;;;;;;3.75;3.45;;;;;;;27.86;92.92;99989.03;4949689;28;20587;-70
2022/06/13 10:55:34;;;;;;;4.28;3.88;;;;;;;28.50;98.33;100044.00;4972674;28;20210;-69
2022/06/13 10:58:06;;;;;;;6.10;4.00;;;;;;;28.18;93.23;100031.69;4972574;28;20205;-69
2022/06/13 11:00:33;;;;;;;4.78;4.38;;;;;;;28.45;92.86;100051.41;4972581;28;20234;-69
2022/06/13 11:03:20;;;;;;;5.13;4.20;;;;;;;28.29;92.61;100039.94;5006041;28;20291;-68
2022/06/13 11:05:53;;;;;;;5.55;5.05;;;;;;;28.21;94.42;100012.84;4972093;28;20213;-69
2022/06/13 11:08:21;;;;;;;4.82;4.40;;;;;;;28.50;93.99;100046.66;4972296;28;20201;-69
2022/06/13 11:10:56;;;;;;;6.25;4.78;;;;;;;28.27;91.37;100032.00;4972373;28;20685;-69
2022/06/13 11:13:28;;;;;;;5.38;4.68;;;;;;;28.44;90.42;100039.00;4971807;28;20284;-69
2022/06/13 11:24:25;;;;;;;4.75;4.35;;;;;;;28.41;88.54;100001.84;4972044;28;20209;-67
2022/06/13 11:29:38;;;;;;;21.60;4.22;;;;;;;28.45;87.27;100017.59;4972191;28;20205;-67
2022/06/13 11:32:18;;;;;;;4.53;4.22;;;;;;;28.38;86.59;100016.22;4971819;28;20580;-67
2022/06/13 11:34:45;;;;;;;4.65;4.35;;;;;;;28.39;91.86;100009.09;4971906;28;20206;-66
2022/06/13 11:37:21;;;;;;;5.75;4.32;;;;;;;28.41;88.28;100001.84;4971671;28;20201;-67
2022/06/13 11:39:50;;;;;;;5.30;4.53;;;;;;;28.42;88.31;100008.91;4971916;28;20205;-68
2022/06/13 11:42:20;;;;;;;5.55;4.40;;;;;;;28.42;91.22;100008.91;4990008;28;20200;-67
2022/06/13 11:44:53;;;;;;;4.78;4.38;;;;;;;28.26;90.55;99994.75;5032643;28;20204;-67
2022/06/13 11:47:21;;;;;;;4.80;4.40;;;;;;;28.45;88.55;100001.56;5032623;28;20215;-67
2022/06/13 11:49:50;;;;;;;9.60;4.55;;;;;;;28.55;94.81;99989.41;5032732;28;20196;-70
2022/06/13 11:55:27;;;;;;;5.05;4.43;;;;;;;28.59;82.08;99984.72;5031878;28;20211;-70
2022/06/13 11:57:57;;;;;;;4.32;4.03;;;;;;;28.81;85.26;99989.66;5031920;28;20227;-69
2022/06/13 12:00:38;;;;;;;4.20;3.90;;;;;;;29.08;78.58;99982.59;5032679;28;20228;-66
2022/06/13 12:03:15;;;;;;;4.28;3.92;;;;;;;29.22;75.46;99976.38;5032687;28;20263;-67
2022/06/13 12:05:42;;;;;;;5.28;4.35;;;;;;;29.36;76.47;99984.44;5032572;28;20243;-66
2022/06/13 12:08:22;;;;;;;6.50;4.43;;;;;;;29.10;79.44;99980.69;5032413;28;20688;-66
2022/06/13 12:11:05;;;;;;;6.20;4.63;;;;;;;29.22;76.88;99984.38;5032295;28;20213;-67
2022/06/13 12:13:34;;;;;;;5.45;4.05;;;;;;;29.52;76.08;99977.13;5032198;28;20319;-67